createdAt,value
2023-03-12T00:01:56.884Z,4.65
2023-03-12T00:04:29.969Z,4.50
2023-03-12T00:06:58.567Z,4.30
2023-03-12T00:09:29.793Z,5.35
2023-03-12T00:12:00.540Z,4.50
2023-03-12T00:14:31.087Z,4.50
2023-03-12T00:16:59.991Z,4.80
2023-03-12T00:19:29.390Z,5.08
2023-03-12T00:21:59.309Z,5.20
2023-03-12T00:24:28.154Z,4.30
2023-03-12T00:26:56.877Z,4.65
2023-03-12T00:29:26.182Z,5.00
2023-03-12T00:31:55.462Z,5.10
2023-03-12T00:34:24.880Z,4.62
2023-03-12T00:36:54.076Z,4.50
2023-03-12T00:39:23.784Z,5.25
2023-03-12T00:41:53.212Z,5.40
2023-03-12T00:44:23.601Z,4.75
2023-03-12T00:46:53.647Z,4.97
2023-03-12T00:49:23.543Z,4.85
2023-03-12T00:51:53.853Z,4.90
2023-03-12T00:54:23.604Z,4.70
2023-03-12T00:56:53.670Z,4.20
2023-03-12T00:59:23.426Z,4.70
2023-03-12T01:01:52.630Z,4.67
2023-03-12T01:04:23.545Z,4.50
2023-03-12T01:06:53.346Z,4.33
2023-03-12T01:09:23.574Z,4.12
2023-03-12T01:11:54.691Z,3.45
2023-03-12T01:14:24.669Z,3.52
2023-03-12T01:16:54.046Z,2.65
2023-03-12T01:19:23.875Z,2.00
2023-03-12T01:21:54.698Z,1.50
2023-03-12T01:24:24.038Z,1.60
2023-03-12T01:26:53.874Z,1.10
2023-03-12T01:29:22.791Z,1.12
2023-03-12T01:31:52.135Z,1.15
2023-03-12T01:34:21.117Z,1.00
2023-03-12T01:36:50.666Z,1.10
2023-03-12T01:39:19.463Z,0.90
2023-03-12T01:41:48.297Z,0.50
2023-03-12T01:44:19.074Z,0.60
2023-03-12T01:46:48.638Z,0.80
2023-03-12T01:49:29.772Z,0.60
2023-03-12T01:52:14.106Z,0.80
2023-03-12T01:55:12.583Z,0.40
2023-03-12T01:57:49.966Z,0.50
2023-03-12T02:00:24.179Z,0.42
2023-03-12T02:03:01.729Z,0.60
2023-03-12T02:05:48.045Z,0.40
2023-03-12T02:08:17.434Z,0.50
2023-03-12T02:10:49.471Z,0.40
2023-03-12T02:13:20.816Z,0.40
2023-03-12T02:15:52.078Z,0.50
2023-03-12T02:18:22.117Z,0.45
2023-03-12T02:21:25.797Z,0.78
2023-03-12T02:24:11.180Z,0.55
2023-03-12T02:26:42.475Z,0.70
2023-03-12T02:29:13.774Z,0.55
2023-03-12T02:31:50.939Z,0.40
2023-03-12T02:34:20.041Z,0.80
2023-03-12T02:36:50.379Z,1.82
2023-03-12T02:39:19.624Z,1.50
2023-03-12T02:41:54.479Z,0.80
2023-03-12T02:44:27.385Z,0.40
2023-03-12T02:46:58.968Z,0.50
2023-03-12T02:49:32.357Z,0.42
2023-03-12T02:52:02.363Z,0.65
2023-03-12T02:54:31.855Z,1.00
2023-03-12T02:57:01.229Z,1.40
2023-03-12T02:59:31.688Z,1.20
2023-03-12T03:02:01.356Z,1.12
2023-03-12T03:04:34.456Z,0.93
2023-03-12T03:07:04.391Z,1.10
2023-03-12T03:09:34.477Z,1.32
2023-03-12T03:12:04.111Z,1.22
2023-03-12T03:14:34.761Z,1.70
2023-03-12T03:17:05.410Z,1.12
2023-03-12T03:19:35.662Z,1.20
2023-03-12T03:22:08.311Z,1.32
2023-03-12T03:24:37.288Z,1.35
2023-03-12T03:27:07.079Z,1.50
2023-03-12T03:29:37.008Z,1.50
2023-03-12T03:32:08.042Z,1.52
2023-03-12T03:34:37.584Z,1.87
2023-03-12T03:37:07.404Z,1.52
2023-03-12T03:39:36.970Z,1.40
2023-03-12T03:42:07.415Z,1.20
2023-03-12T03:44:38.023Z,1.42
2023-03-12T03:47:09.515Z,1.42
2023-03-12T03:49:39.154Z,1.40
2023-03-12T03:52:09.647Z,1.50
2023-03-12T03:54:39.941Z,1.40
2023-03-12T03:57:11.014Z,1.40
2023-03-12T03:59:45.181Z,1.90
2023-03-12T04:02:19.828Z,1.50
2023-03-12T04:04:48.919Z,1.50
2023-03-12T04:07:17.621Z,1.55
2023-03-12T04:09:46.615Z,1.62
2023-03-12T04:12:17.126Z,1.50
2023-03-12T04:14:46.523Z,1.45
2023-03-12T04:17:16.053Z,1.60
2023-03-12T04:19:45.798Z,1.52
2023-03-12T04:22:17.069Z,1.80
2023-03-12T04:24:46.462Z,1.90
2023-03-12T04:27:16.582Z,1.85
2023-03-12T04:29:48.267Z,1.80
2023-03-12T04:32:17.601Z,2.50
2023-03-12T04:34:47.010Z,2.22
2023-03-12T04:37:16.375Z,2.40
2023-03-12T04:39:47.621Z,2.33
2023-03-12T04:42:16.897Z,2.22
2023-03-12T04:44:46.079Z,2.20
2023-03-12T04:47:16.789Z,2.40
2023-03-12T04:49:46.596Z,2.20
2023-03-12T04:52:17.801Z,2.70
2023-03-12T04:54:48.109Z,2.47
2023-03-12T04:57:17.530Z,2.30
2023-03-12T04:59:47.769Z,2.70
2023-03-12T05:02:18.159Z,2.80
2023-03-12T05:04:47.196Z,2.75
2023-03-12T05:07:15.951Z,2.33
2023-03-12T05:09:46.706Z,2.58
2023-03-12T05:12:17.624Z,2.50
2023-03-12T05:14:48.593Z,2.60
2023-03-12T05:17:18.317Z,2.37
2023-03-12T05:19:49.001Z,2.60
2023-03-12T05:22:19.342Z,2.50
2023-03-12T05:24:48.449Z,2.75
2023-03-12T05:27:19.169Z,2.33
2023-03-12T05:29:49.194Z,2.35
2023-03-12T05:32:22.029Z,2.33
2023-03-12T05:34:52.539Z,2.30
2023-03-12T05:37:22.002Z,2.42
2023-03-12T05:39:51.233Z,2.50
2023-03-12T05:42:20.028Z,2.22
2023-03-12T05:44:52.240Z,3.10
2023-03-12T05:47:23.098Z,2.58
2023-03-12T05:49:55.192Z,2.98
2023-03-12T05:52:25.584Z,2.80
2023-03-12T05:54:55.085Z,2.40
2023-03-12T05:57:24.301Z,2.60
2023-03-12T05:59:53.608Z,3.95
2023-03-12T06:02:23.693Z,4.30
2023-03-12T06:04:53.421Z,4.37
2023-03-12T06:07:24.684Z,3.75
2023-03-12T06:09:55.200Z,6.80
2023-03-12T06:12:26.155Z,6.67
2023-03-12T06:14:55.097Z,5.62
2023-03-12T06:17:23.862Z,4.75
2023-03-12T06:19:53.396Z,5.28
2023-03-12T06:22:23.263Z,4.50
2023-03-12T06:24:52.733Z,3.77
2023-03-12T06:27:22.667Z,3.22
2023-03-12T06:29:52.695Z,2.83
2023-03-12T06:32:21.852Z,2.67
2023-03-12T06:34:52.717Z,2.25
2023-03-12T06:37:22.887Z,2.50
2023-03-12T06:39:52.493Z,2.40
2023-03-12T06:42:22.690Z,2.30
2023-03-12T06:44:52.101Z,2.62
2023-03-12T06:47:22.115Z,2.42
2023-03-12T06:49:51.078Z,2.37
2023-03-12T06:52:22.309Z,2.60
2023-03-12T06:54:52.164Z,2.25
2023-03-12T06:57:21.638Z,2.15
2023-03-12T06:59:51.977Z,2.35
2023-03-12T07:02:21.641Z,2.30
2023-03-12T07:04:50.836Z,1.98
2023-03-12T07:07:21.477Z,2.20
2023-03-12T07:09:54.023Z,2.05
2023-03-12T07:12:23.241Z,1.90
2023-03-12T07:14:52.463Z,2.85
2023-03-12T07:17:24.366Z,2.40
2023-03-12T07:19:54.870Z,2.40
2023-03-12T07:22:23.901Z,2.20
2023-03-12T07:24:53.342Z,2.17
2023-03-12T07:27:22.358Z,2.12
2023-03-12T07:29:52.774Z,2.85
2023-03-12T07:32:22.801Z,1.80
2023-03-12T07:34:53.203Z,1.60
2023-03-12T07:37:25.367Z,2.00
2023-03-12T07:39:55.988Z,3.17
2023-03-12T07:42:26.422Z,4.22
2023-03-12T07:44:58.842Z,4.35
2023-03-12T07:47:29.161Z,4.85
2023-03-12T07:50:00.707Z,3.30
2023-03-12T07:52:30.651Z,3.15
2023-03-12T07:55:00.914Z,1.90
2023-03-12T07:57:31.713Z,2.30
2023-03-12T08:00:01.093Z,2.20
2023-03-12T08:02:34.120Z,2.20
2023-03-12T08:05:04.848Z,1.90
2023-03-12T08:07:35.429Z,2.70
2023-03-12T08:10:07.702Z,2.65
2023-03-12T08:12:39.471Z,1.87
2023-03-12T08:15:09.634Z,2.27
2023-03-12T08:17:40.489Z,1.35
2023-03-12T08:20:11.256Z,1.70
2023-03-12T08:22:41.352Z,1.50
2023-03-12T08:25:10.663Z,1.60
2023-03-12T08:27:41.608Z,1.40
2023-03-12T08:30:13.342Z,2.02
2023-03-12T08:32:43.006Z,1.80
2023-03-12T08:35:12.159Z,1.92
2023-03-12T08:37:41.487Z,1.75
2023-03-12T08:40:13.451Z,1.60
2023-03-12T08:42:44.128Z,2.02
2023-03-12T08:45:14.018Z,1.87
2023-03-12T08:47:44.508Z,1.87
2023-03-12T08:50:16.324Z,1.50
2023-03-12T08:52:47.210Z,1.60
2023-03-12T08:55:16.415Z,1.82
2023-03-12T08:57:45.913Z,1.75
2023-03-12T09:00:19.029Z,2.58
2023-03-12T09:02:51.189Z,1.85
2023-03-12T09:05:20.795Z,3.02
2023-03-12T09:07:52.338Z,1.70
2023-03-12T09:10:23.302Z,1.72
2023-03-12T09:12:53.132Z,1.90
2023-03-12T09:15:24.225Z,1.65
2023-03-12T09:17:55.747Z,1.30
2023-03-12T09:20:26.466Z,1.12
2023-03-12T09:22:56.552Z,1.20
2023-03-12T09:25:25.850Z,1.07
2023-03-12T09:27:55.841Z,1.17
2023-03-12T09:30:26.750Z,1.62
2023-03-12T09:32:56.026Z,1.32
2023-03-12T09:35:25.414Z,1.35
2023-03-12T09:37:54.919Z,0.70
2023-03-12T09:40:26.141Z,1.07
2023-03-12T09:43:14.249Z,1.22
2023-03-12T09:45:45.364Z,1.22
2023-03-12T09:48:34.926Z,1.00
2023-03-12T09:51:39.479Z,1.12
2023-03-12T09:54:16.957Z,1.60
2023-03-12T09:56:46.117Z,1.32
2023-03-12T09:59:15.220Z,1.22
2023-03-12T10:01:54.780Z,1.12
2023-03-12T10:04:59.518Z,1.20
2023-03-12T10:07:28.493Z,1.30
2023-03-12T10:10:24.794Z,1.52
2023-03-12T10:13:20.568Z,0.95
2023-03-12T10:16:17.782Z,1.27
2023-03-12T10:19:08.875Z,1.00
2023-03-12T10:22:00.158Z,1.10
2023-03-12T10:24:52.625Z,1.12
2023-03-12T10:27:21.220Z,1.05
2023-03-12T10:29:51.653Z,1.32
2023-03-12T10:32:29.733Z,1.70
2023-03-12T10:35:21.996Z,1.75
2023-03-12T10:38:01.079Z,1.50
2023-03-12T10:40:35.488Z,1.40
2023-03-12T10:43:07.009Z,1.37
2023-03-12T10:46:07.998Z,1.32
2023-03-12T10:48:38.652Z,1.50
2023-03-12T10:51:12.957Z,1.40
2023-03-12T10:53:47.781Z,1.40
2023-03-12T10:56:20.522Z,1.50
2023-03-12T10:58:51.297Z,1.50
2023-03-12T11:01:25.629Z,1.37
2023-03-12T11:04:17.558Z,1.40
2023-03-12T11:07:17.329Z,1.67
2023-03-12T11:09:46.755Z,1.40
2023-03-12T11:12:28.962Z,1.22
2023-03-12T11:14:59.634Z,1.30
2023-03-12T11:17:29.811Z,1.20
2023-03-12T11:20:00.911Z,1.95
2023-03-12T11:22:34.743Z,2.00
2023-03-12T11:25:06.198Z,1.20
2023-03-12T11:27:46.848Z,1.25
2023-03-12T11:30:18.391Z,1.30
2023-03-12T11:32:49.534Z,1.50
2023-03-12T11:35:24.255Z,1.32
2023-03-12T11:38:11.157Z,1.30
2023-03-12T11:41:16.868Z,1.40
2023-03-12T11:44:15.598Z,1.22
2023-03-12T11:47:27.747Z,1.00
2023-03-12T11:50:21.520Z,1.25
2023-03-12T11:53:26.707Z,1.10
2023-03-12T11:56:29.610Z,1.65
2023-03-12T11:59:13.398Z,1.42
2023-03-12T12:02:03.006Z,1.82
2023-03-12T12:04:43.912Z,1.35
2023-03-12T12:07:57.165Z,1.50
2023-03-12T12:10:56.795Z,1.70
2023-03-12T12:13:47.909Z,1.40
2023-03-12T12:16:25.611Z,1.20
2023-03-12T12:19:12.639Z,1.15
2023-03-12T12:22:14.491Z,1.22
2023-03-12T12:25:06.535Z,1.35
2023-03-12T12:27:50.661Z,1.50
2023-03-12T12:31:10.940Z,1.20
2023-03-12T12:34:16.914Z,1.60
2023-03-12T12:36:52.724Z,1.47
2023-03-12T12:39:36.792Z,1.35
2023-03-12T12:42:28.854Z,1.60
2023-03-12T12:44:58.329Z,1.72
2023-03-12T12:47:39.084Z,1.40
2023-03-12T12:50:20.526Z,1.40
2023-03-12T12:52:55.017Z,2.10
2023-03-12T12:55:30.895Z,1.65
2023-03-12T12:58:05.565Z,1.65
2023-03-12T13:00:53.240Z,1.95
2023-03-12T13:03:24.246Z,1.50
2023-03-12T13:06:02.844Z,1.67
2023-03-12T13:08:44.272Z,1.50
2023-03-12T13:11:38.076Z,1.50
2023-03-12T13:14:13.627Z,1.85
2023-03-12T13:16:44.865Z,1.72
2023-03-12T13:19:24.499Z,1.80
2023-03-12T13:22:17.425Z,2.00
2023-03-12T13:25:05.003Z,2.30
2023-03-12T13:27:40.360Z,2.50
2023-03-12T13:30:37.390Z,2.40
2023-03-12T13:33:08.497Z,2.47
2023-03-12T13:35:39.175Z,2.45
2023-03-12T13:38:13.083Z,2.50
2023-03-12T13:41:02.758Z,2.90
2023-03-12T13:43:44.165Z,3.10
2023-03-12T13:46:38.147Z,3.12
2023-03-12T13:49:13.164Z,2.35
2023-03-12T13:51:49.967Z,3.33
2023-03-12T13:54:19.301Z,3.22
2023-03-12T13:57:02.571Z,3.20
2023-03-12T13:59:33.328Z,3.22
2023-03-12T14:02:06.614Z,3.90
2023-03-12T14:04:39.106Z,3.05
2023-03-12T14:07:31.782Z,3.55
2023-03-12T14:10:19.280Z,4.05
2023-03-12T14:13:11.857Z,3.85
2023-03-12T14:16:01.126Z,3.72
2023-03-12T14:18:33.241Z,3.45
2023-03-12T14:21:06.111Z,3.60
2023-03-12T14:23:40.941Z,3.40
2023-03-12T14:26:18.311Z,4.08
2023-03-12T14:28:55.569Z,3.47
2023-03-12T14:31:25.322Z,3.58
2023-03-12T14:34:21.683Z,3.20
2023-03-12T14:37:23.535Z,3.40
2023-03-12T14:40:06.514Z,3.72
2023-03-12T14:42:38.366Z,3.72
2023-03-12T14:45:13.922Z,3.50
2023-03-12T14:47:45.722Z,3.58
2023-03-12T14:50:24.795Z,4.08
2023-03-12T14:52:55.206Z,4.12
2023-03-12T14:55:26.005Z,3.83
2023-03-12T14:58:20.322Z,4.42
2023-03-12T15:01:04.153Z,4.25
2023-03-12T15:03:43.358Z,4.05
2023-03-12T15:06:20.738Z,3.87
2023-03-12T15:08:49.629Z,3.85
2023-03-12T15:11:25.488Z,3.80
2023-03-12T15:13:56.523Z,3.50
2023-03-12T15:16:28.259Z,3.05
2023-03-12T15:18:57.395Z,3.08
2023-03-12T15:21:28.333Z,3.67
2023-03-12T15:23:58.688Z,3.72
2023-03-12T15:26:32.195Z,3.22
2023-03-12T15:29:27.098Z,3.08
2023-03-12T15:31:58.945Z,3.60
2023-03-12T15:34:37.488Z,3.60
2023-03-12T15:37:35.671Z,3.20
2023-03-12T15:40:10.356Z,3.30
2023-03-12T15:42:42.421Z,3.60
2023-03-12T15:45:21.803Z,3.67
2023-03-12T15:47:53.424Z,3.92
2023-03-12T15:50:33.838Z,3.47
2023-03-12T15:53:16.562Z,3.55
2023-03-12T15:56:05.439Z,3.75
2023-03-12T15:58:37.694Z,3.47
2023-03-12T16:01:10.925Z,3.47
2023-03-12T16:03:41.668Z,3.75
2023-03-12T16:06:18.691Z,3.92
2023-03-12T16:09:01.169Z,3.85
2023-03-12T16:11:33.473Z,3.33
2023-03-12T16:14:31.568Z,3.85
2023-03-12T16:17:00.928Z,3.87
2023-03-12T16:19:30.601Z,3.50
2023-03-12T16:21:59.776Z,3.37
2023-03-12T16:24:30.511Z,3.37
2023-03-12T16:26:59.697Z,2.98
2023-03-12T16:29:36.088Z,3.20
2023-03-12T16:32:15.085Z,3.35
2023-03-12T16:34:45.750Z,2.85
2023-03-12T16:37:15.585Z,3.15
2023-03-12T16:39:46.163Z,3.65
2023-03-12T16:42:19.089Z,2.02
2023-03-12T16:44:50.435Z,1.17
2023-03-12T16:47:21.163Z,1.40
2023-03-12T16:49:49.945Z,1.72
2023-03-12T16:52:26.264Z,1.45
2023-03-12T16:54:55.082Z,1.37
2023-03-12T16:57:31.671Z,1.20
2023-03-12T17:00:01.021Z,1.45
2023-03-12T17:02:30.186Z,1.20
2023-03-12T17:05:00.423Z,1.35
2023-03-12T17:07:31.052Z,1.50
2023-03-12T17:09:59.767Z,1.60
2023-03-12T17:12:36.010Z,1.55
2023-03-12T17:15:19.610Z,1.57
2023-03-12T17:17:50.147Z,1.50
2023-03-12T17:20:20.429Z,1.12
2023-03-12T17:22:50.671Z,1.20
2023-03-12T17:25:29.094Z,1.22
2023-03-12T17:27:59.363Z,1.15
2023-03-12T17:30:29.682Z,1.20
2023-03-12T17:33:12.513Z,1.47
2023-03-12T17:35:41.653Z,1.20
2023-03-12T17:38:13.535Z,1.50
2023-03-12T17:40:43.089Z,1.57
2023-03-12T17:43:11.760Z,1.40
2023-03-12T17:45:42.890Z,1.42
2023-03-12T17:48:12.083Z,1.62
2023-03-12T17:50:41.581Z,1.60
2023-03-12T17:53:10.197Z,1.50
2023-03-12T17:55:40.311Z,2.20
2023-03-12T17:58:09.076Z,2.10
2023-03-12T18:00:38.621Z,1.95
2023-03-12T18:03:09.775Z,2.08
2023-03-12T18:05:41.071Z,1.85
2023-03-12T18:08:10.453Z,1.72
2023-03-12T18:10:40.271Z,1.90
2023-03-12T18:13:08.966Z,1.80
2023-03-12T18:15:42.668Z,2.02
2023-03-12T18:18:12.020Z,2.12
2023-03-12T18:20:41.440Z,1.98
2023-03-12T18:23:10.609Z,1.82
2023-03-12T18:25:39.499Z,2.60
2023-03-12T18:28:08.785Z,2.25
2023-03-12T18:30:37.801Z,2.27
2023-03-12T18:33:07.143Z,2.10
2023-03-12T18:35:36.345Z,2.45
2023-03-12T18:38:05.945Z,2.55
2023-03-12T18:40:36.146Z,2.20
2023-03-12T18:43:05.178Z,2.40
2023-03-12T18:45:35.042Z,2.60
2023-03-12T18:48:05.884Z,3.05
2023-03-12T18:50:34.662Z,2.70
2023-03-12T18:53:04.191Z,2.67
2023-03-12T18:55:32.913Z,3.00
2023-03-12T18:58:03.055Z,2.60
2023-03-12T19:00:31.676Z,2.50
2023-03-12T19:03:02.058Z,2.40
2023-03-12T19:05:31.202Z,2.95
2023-03-12T19:08:00.121Z,2.30
2023-03-12T19:10:29.161Z,2.40
2023-03-12T19:12:59.060Z,2.30
2023-03-12T19:15:28.062Z,2.20
2023-03-12T19:17:58.382Z,2.52
2023-03-12T19:20:27.061Z,2.25
2023-03-12T19:22:57.497Z,2.40
2023-03-12T19:25:27.843Z,2.70
2023-03-12T19:27:56.881Z,2.60
2023-03-12T19:30:27.593Z,2.42
2023-03-12T19:32:57.410Z,2.37
2023-03-12T19:35:27.051Z,2.37
2023-03-12T19:37:57.619Z,2.67
2023-03-12T19:40:29.259Z,2.77
2023-03-12T19:42:58.850Z,2.08
2023-03-12T19:45:28.495Z,3.22
2023-03-12T19:47:57.411Z,2.80
2023-03-12T19:50:26.365Z,2.52
2023-03-12T19:52:56.840Z,2.85
2023-03-12T19:55:26.124Z,2.70
2023-03-12T19:57:54.905Z,2.25
2023-03-12T20:00:24.261Z,2.10
2023-03-12T20:02:52.989Z,2.45
2023-03-12T20:05:22.421Z,2.70
2023-03-12T20:07:52.322Z,2.30
2023-03-12T20:10:23.194Z,2.50
2023-03-12T20:12:54.386Z,2.50
2023-03-12T20:15:24.934Z,1.70
2023-03-12T20:17:58.951Z,1.70
2023-03-12T20:20:27.961Z,1.17
2023-03-12T20:22:57.213Z,1.00
2023-03-12T20:25:26.760Z,1.02
2023-03-12T20:27:57.762Z,0.80
2023-03-12T20:30:28.111Z,1.02
2023-03-12T20:32:57.414Z,0.98
2023-03-12T20:35:26.373Z,0.62
2023-03-12T20:37:56.771Z,0.90
2023-03-12T20:40:25.403Z,0.88
2023-03-12T20:42:55.597Z,1.10
2023-03-12T20:45:25.814Z,1.05
2023-03-12T20:47:54.356Z,0.90
2023-03-12T20:50:26.227Z,1.20
2023-03-12T20:52:55.875Z,1.10
2023-03-12T20:55:24.475Z,0.88
2023-03-12T20:57:53.215Z,1.00
2023-03-12T21:00:23.089Z,0.80
2023-03-12T21:02:52.328Z,1.02
2023-03-12T21:05:23.844Z,0.88
2023-03-12T21:07:53.609Z,0.90
2023-03-12T21:10:22.682Z,0.60
2023-03-12T21:12:53.061Z,0.80
2023-03-12T21:15:23.981Z,0.60
2023-03-12T21:17:53.265Z,0.65
2023-03-12T21:20:23.698Z,0.80
2023-03-12T21:22:53.630Z,0.57
2023-03-12T21:25:23.288Z,0.93
2023-03-12T21:27:56.599Z,0.70
2023-03-12T21:30:25.460Z,0.80
2023-03-12T21:32:55.494Z,0.82
2023-03-12T21:35:26.495Z,0.80
2023-03-12T21:37:58.768Z,0.57
2023-03-12T21:40:27.592Z,0.60
2023-03-12T21:42:56.637Z,0.80
2023-03-12T21:45:26.432Z,0.60
2023-03-12T21:47:55.185Z,1.12
2023-03-12T21:50:25.985Z,1.30
2023-03-12T21:52:55.103Z,1.20
2023-03-12T21:55:23.654Z,1.05
2023-03-12T21:57:53.061Z,0.60
2023-03-12T22:00:24.167Z,0.70
2023-03-12T22:02:54.623Z,0.90
2023-03-12T22:05:23.298Z,0.98
2023-03-12T22:07:51.892Z,1.05
2023-03-12T22:10:20.997Z,0.80
2023-03-12T22:12:49.831Z,0.80
2023-03-12T22:15:19.469Z,1.00
2023-03-12T22:17:49.814Z,0.72
2023-03-12T22:20:19.630Z,0.70
2023-03-12T22:22:50.611Z,0.72
2023-03-12T22:25:19.815Z,0.88
2023-03-12T22:27:49.363Z,0.70
2023-03-12T22:30:18.644Z,0.90
2023-03-12T22:32:47.669Z,1.20
2023-03-12T22:35:20.051Z,1.20
2023-03-12T22:37:48.949Z,1.10
2023-03-12T22:40:18.437Z,0.90
2023-03-12T22:42:55.437Z,0.90
2023-03-12T22:45:25.232Z,0.90
2023-03-12T22:47:53.966Z,1.05
2023-03-12T22:50:23.137Z,1.32
2023-03-12T22:52:52.451Z,1.30
2023-03-12T22:55:21.251Z,1.00
2023-03-12T22:57:51.451Z,0.90
2023-03-12T23:00:23.809Z,1.02
2023-03-12T23:02:52.919Z,1.00
2023-03-12T23:05:21.662Z,1.00
2023-03-12T23:07:51.214Z,0.95
2023-03-12T23:10:21.657Z,0.95
2023-03-12T23:12:51.780Z,1.20
2023-03-12T23:15:24.570Z,1.10
2023-03-12T23:17:55.910Z,1.20
2023-03-12T23:20:25.123Z,1.20
2023-03-12T23:22:55.279Z,0.98
2023-03-12T23:25:25.648Z,1.02
2023-03-12T23:27:54.839Z,1.20
2023-03-12T23:30:26.022Z,0.98
2023-03-12T23:32:55.180Z,1.00
2023-03-12T23:35:24.568Z,1.27
2023-03-12T23:37:56.189Z,1.22
2023-03-12T23:40:25.061Z,1.10
2023-03-12T23:42:54.639Z,1.30
2023-03-12T23:45:24.210Z,1.27
2023-03-12T23:47:53.490Z,1.20
2023-03-12T23:50:22.621Z,1.32
2023-03-12T23:52:51.215Z,1.10
2023-03-12T23:55:20.162Z,1.42
2023-03-12T23:57:49.252Z,1.07
